<?xml version="1.0" encoding="UTF-8" standalone="no" ?><gpx xmlns="http://www.topografix.com/GPX/1/1" xmlns:gpxx="http://www.garmin.com/xmlschemas/GpxExtensions/v3" xmlns:wptx1="http://www.garmin.com/xmlschemas/WaypointExtension/v1" xmlns:gpxtpx="http://www.garmin.com/xmlschemas/TrackPointExtension/v1" creator="GuideVTT.com" version="1.1" xmlns:xsi="http://www.w3.org/2001/XMLSchema-instance" xsi:schemaLocation="http://www.topografix.com/GPX/1/1 http://www.topografix.com/GPX/1/1/gpx.xsd http://www.garmin.com/xmlschemas/GpxExtensions/v3 http://www8.garmin.com/xmlschemas/GpxExtensionsv3.xsd http://www.garmin.com/xmlschemas/WaypointExtension/v1 http://www8.garmin.com/xmlschemas/WaypointExtensionv1.xsd http://www.garmin.com/xmlschemas/TrackPointExtension/v1 http://www.garmin.com/xmlschemas/TrackPointExtensionv1.xsd">
<metadata><link href="http://www.garmin.com"><text>Garmin International</text></link><time>2013-06-22T15:13:50Z</time></metadata>
<trk><name>parcours15.gpx</name><extensions><gpxx:TrackExtension><gpxx:DisplayColor>Cyan</gpxx:DisplayColor></gpxx:TrackExtension></extensions><trkseg>
<trkpt lat="46.29470000" lon="7.39406670"><ele>1548</ele><time>2003-08-16T12:50:12Z</time></trkpt>
<trkpt lat="46.29476670" lon="7.39366670"><ele>1550</ele><time>2003-08-16T12:50:26Z</time></trkpt>
<trkpt lat="46.29493330" lon="7.39346670"><ele>1551</ele><time>2003-08-16T12:50:39Z</time></trkpt>
<trkpt lat="46.29551670" lon="7.39373330"><ele>1558</ele><time>2003-08-16T12:51:09Z</time></trkpt>
<trkpt lat="46.29605000" lon="7.39413330"><ele>1565</ele><time>2003-08-16T12:51:40Z</time></trkpt>
<trkpt lat="46.29638330" lon="7.39433330"><ele>1570</ele><time>2003-08-16T12:51:58Z</time></trkpt>
<trkpt lat="46.29676670" lon="7.39450000"><ele>1574</ele><time>2003-08-16T12:52:17Z</time></trkpt>
<trkpt lat="46.29706670" lon="7.39475000"><ele>1577</ele><time>2003-08-16T12:52:35Z</time></trkpt>
<trkpt lat="46.29731670" lon="7.39493330"><ele>1579</ele><time>2003-08-16T12:52:50Z</time></trkpt>
<trkpt lat="46.29753330" lon="7.39500000"><ele>1581</ele><time>2003-08-16T12:53:05Z</time></trkpt>
<trkpt lat="46.29776670" lon="7.39511670"><ele>1583</ele><time>2003-08-16T12:53:18Z</time></trkpt>
<trkpt lat="46.29810000" lon="7.39541670"><ele>1587</ele><time>2003-08-16T12:53:37Z</time></trkpt>
<trkpt lat="46.29833330" lon="7.39556670"><ele>1591</ele><time>2003-08-16T12:53:50Z</time></trkpt>
<trkpt lat="46.29865000" lon="7.39571670"><ele>1595</ele><time>2003-08-16T12:54:07Z</time></trkpt>
<trkpt lat="46.29900000" lon="7.39578330"><ele>1601</ele><time>2003-08-16T12:54:24Z</time></trkpt>
<trkpt lat="46.29955000" lon="7.39598330"><ele>1606</ele><time>2003-08-16T12:54:49Z</time></trkpt>
<trkpt lat="46.30003330" lon="7.39623330"><ele>1609</ele><time>2003-08-16T12:55:14Z</time></trkpt>
<trkpt lat="46.30011670" lon="7.39646670"><ele>1610</ele><time>2003-08-16T12:55:26Z</time></trkpt>
<trkpt lat="46.30018330" lon="7.39683330"><ele>1611</ele><time>2003-08-16T12:55:41Z</time></trkpt>
<trkpt lat="46.30050000" lon="7.39750000"><ele>1617</ele><time>2003-08-16T12:56:12Z</time></trkpt>
<trkpt lat="46.30071670" lon="7.39755000"><ele>1620</ele><time>2003-08-16T12:56:27Z</time></trkpt>
<trkpt lat="46.30086670" lon="7.39766670"><ele>1622</ele><time>2003-08-16T12:56:38Z</time></trkpt>
<trkpt lat="46.30115000" lon="7.39808330"><ele>1627</ele><time>2003-08-16T12:57:06Z</time></trkpt>
<trkpt lat="46.30170000" lon="7.39831670"><ele>1637</ele><time>2003-08-16T12:57:42Z</time></trkpt>
<trkpt lat="46.30220000" lon="7.39843330"><ele>1646</ele><time>2003-08-16T12:58:14Z</time></trkpt>
<trkpt lat="46.30235000" lon="7.39851670"><ele>1646</ele><time>2003-08-16T12:58:23Z</time></trkpt>
<trkpt lat="46.30238330" lon="7.39870000"><ele>1647</ele><time>2003-08-16T12:58:34Z</time></trkpt>
<trkpt lat="46.30241670" lon="7.39896670"><ele>1647</ele><time>2003-08-16T12:58:47Z</time></trkpt>
<trkpt lat="46.30238330" lon="7.39900000"><ele>1647</ele><time>2003-08-16T12:58:49Z</time></trkpt>
<trkpt lat="46.30245000" lon="7.39913330"><ele>1648</ele><time>2003-08-16T12:58:57Z</time></trkpt>
<trkpt lat="46.30268330" lon="7.39936670"><ele>1653</ele><time>2003-08-16T12:59:19Z</time></trkpt>
<trkpt lat="46.30273330" lon="7.39968330"><ele>1655</ele><time>2003-08-16T12:59:40Z</time></trkpt>
<trkpt lat="46.30290000" lon="7.39988330"><ele>1657</ele><time>2003-08-16T12:59:56Z</time></trkpt>
<trkpt lat="46.30311670" lon="7.40003330"><ele>1656</ele><time>2003-08-16T13:00:13Z</time></trkpt>
<trkpt lat="46.30333330" lon="7.40025000"><ele>1656</ele><time>2003-08-16T13:00:32Z</time></trkpt>
<trkpt lat="46.30335000" lon="7.40031670"><ele>1656</ele><time>2003-08-16T13:00:34Z</time></trkpt>
<trkpt lat="46.30335000" lon="7.40068330"><ele>1661</ele><time>2003-08-16T13:00:53Z</time></trkpt>
<trkpt lat="46.30346670" lon="7.40101670"><ele>1663</ele><time>2003-08-16T13:01:09Z</time></trkpt>
<trkpt lat="46.30365000" lon="7.40125000"><ele>1668</ele><time>2003-08-16T13:01:23Z</time></trkpt>
<trkpt lat="46.30406670" lon="7.40153330"><ele>1673</ele><time>2003-08-16T13:01:41Z</time></trkpt>
<trkpt lat="46.30421670" lon="7.40181670"><ele>1675</ele><time>2003-08-16T13:01:52Z</time></trkpt>
<trkpt lat="46.30471670" lon="7.40236670"><ele>1680</ele><time>2003-08-16T13:02:16Z</time></trkpt>
<trkpt lat="46.30491670" lon="7.40288330"><ele>1683</ele><time>2003-08-16T13:02:30Z</time></trkpt>
<trkpt lat="46.30513330" lon="7.40321670"><ele>1684</ele><time>2003-08-16T13:02:42Z</time></trkpt>
<trkpt lat="46.30526670" lon="7.40351670"><ele>1686</ele><time>2003-08-16T13:02:52Z</time></trkpt>
<trkpt lat="46.30553330" lon="7.40373330"><ele>1689</ele><time>2003-08-16T13:03:05Z</time></trkpt>
<trkpt lat="46.30585000" lon="7.40411670"><ele>1693</ele><time>2003-08-16T13:03:23Z</time></trkpt>
<trkpt lat="46.30581670" lon="7.40481670"><ele>1698</ele><time>2003-08-16T13:03:42Z</time></trkpt>
<trkpt lat="46.30608330" lon="7.40513330"><ele>1698</ele><time>2003-08-16T13:03:53Z</time></trkpt>
<trkpt lat="46.30626670" lon="7.40568330"><ele>1699</ele><time>2003-08-16T13:04:06Z</time></trkpt>
<trkpt lat="46.30701670" lon="7.40706670"><ele>1703</ele><time>2003-08-16T13:04:42Z</time></trkpt>
<trkpt lat="46.30701670" lon="7.40758330"><ele>1705</ele><time>2003-08-16T13:04:51Z</time></trkpt>
<trkpt lat="46.30725000" lon="7.40800000"><ele>1705</ele><time>2003-08-16T13:05:00Z</time></trkpt>
<trkpt lat="46.30758330" lon="7.40875000"><ele>1707</ele><time>2003-08-16T13:05:15Z</time></trkpt>
<trkpt lat="46.30781670" lon="7.40911670"><ele>1707</ele><time>2003-08-16T13:05:23Z</time></trkpt>
<trkpt lat="46.30806670" lon="7.40906670"><ele>1708</ele><time>2003-08-16T13:05:30Z</time></trkpt>
<trkpt lat="46.30833330" lon="7.40888330"><ele>1708</ele><time>2003-08-16T13:05:37Z</time></trkpt>
<trkpt lat="46.30850000" lon="7.40906670"><ele>1707</ele><time>2003-08-16T13:05:43Z</time></trkpt>
<trkpt lat="46.30855000" lon="7.40926670"><ele>1707</ele><time>2003-08-16T13:05:46Z</time></trkpt>
<trkpt lat="46.30865000" lon="7.40950000"><ele>1707</ele><time>2003-08-16T13:05:51Z</time></trkpt>
<trkpt lat="46.30906670" lon="7.41020000"><ele>1707</ele><time>2003-08-16T13:06:06Z</time></trkpt>
<trkpt lat="46.30945000" lon="7.41075000"><ele>1709</ele><time>2003-08-16T13:06:19Z</time></trkpt>
<trkpt lat="46.30978330" lon="7.41113330"><ele>1712</ele><time>2003-08-16T13:06:32Z</time></trkpt>
<trkpt lat="46.31000000" lon="7.41150000"><ele>1712</ele><time>2003-08-16T13:06:39Z</time></trkpt>
<trkpt lat="46.31020000" lon="7.41195000"><ele>1712</ele><time>2003-08-16T13:06:49Z</time></trkpt>
<trkpt lat="46.31045000" lon="7.41296670"><ele>1713</ele><time>2003-08-16T13:07:10Z</time></trkpt>
<trkpt lat="46.31108330" lon="7.41345000"><ele>1714</ele><time>2003-08-16T13:07:29Z</time></trkpt>
<trkpt lat="46.31120000" lon="7.41351670"><ele>1714</ele><time>2003-08-16T13:07:32Z</time></trkpt>
<trkpt lat="46.31163330" lon="7.41393330"><ele>1715</ele><time>2003-08-16T13:07:44Z</time></trkpt>
<trkpt lat="46.31228330" lon="7.41443330"><ele>1714</ele><time>2003-08-16T13:08:06Z</time></trkpt>
<trkpt lat="46.31255000" lon="7.41448330"><ele>1712</ele><time>2003-08-16T13:08:16Z</time></trkpt>
<trkpt lat="46.31260000" lon="7.41438330"><ele>1712</ele><time>2003-08-16T13:08:18Z</time></trkpt>
<trkpt lat="46.31258330" lon="7.41406670"><ele>1712</ele><time>2003-08-16T13:08:23Z</time></trkpt>
<trkpt lat="46.31285000" lon="7.41231670"><ele>1710</ele><time>2003-08-16T13:08:51Z</time></trkpt>
<trkpt lat="46.31296670" lon="7.41215000"><ele>1711</ele><time>2003-08-16T13:08:55Z</time></trkpt>
<trkpt lat="46.31305000" lon="7.41191670"><ele>1711</ele><time>2003-08-16T13:08:59Z</time></trkpt>
<trkpt lat="46.31321670" lon="7.41185000"><ele>1712</ele><time>2003-08-16T13:09:05Z</time></trkpt>
<trkpt lat="46.31328330" lon="7.41190000"><ele>1712</ele><time>2003-08-16T13:09:07Z</time></trkpt>
<trkpt lat="46.31345000" lon="7.41180000"><ele>1714</ele><time>2003-08-16T13:09:13Z</time></trkpt>
<trkpt lat="46.31365000" lon="7.41158330"><ele>1714</ele><time>2003-08-16T13:09:19Z</time></trkpt>
<trkpt lat="46.31420000" lon="7.41136670"><ele>1716</ele><time>2003-08-16T13:09:37Z</time></trkpt>
<trkpt lat="46.31430000" lon="7.41145000"><ele>1716</ele><time>2003-08-16T13:09:44Z</time></trkpt>
<trkpt lat="46.31431670" lon="7.41175000"><ele>1718</ele><time>2003-08-16T13:09:59Z</time></trkpt>
<trkpt lat="46.31440000" lon="7.41205000"><ele>1721</ele><time>2003-08-16T13:10:19Z</time></trkpt>
<trkpt lat="46.31476670" lon="7.41300000"><ele>1729</ele><time>2003-08-16T13:11:23Z</time></trkpt>
<trkpt lat="46.31493330" lon="7.41355000"><ele>1734</ele><time>2003-08-16T13:11:56Z</time></trkpt>
<trkpt lat="46.31520000" lon="7.41415000"><ele>1735</ele><time>2003-08-16T13:12:21Z</time></trkpt>
<trkpt lat="46.31556670" lon="7.41468330"><ele>1736</ele><time>2003-08-16T13:12:35Z</time></trkpt>
<trkpt lat="46.31615000" lon="7.41576670"><ele>1736</ele><time>2003-08-16T13:12:57Z</time></trkpt>
<trkpt lat="46.31646670" lon="7.41621670"><ele>1734</ele><time>2003-08-16T13:13:06Z</time></trkpt>
<trkpt lat="46.31635000" lon="7.41646670"><ele>1735</ele><time>2003-08-16T13:13:14Z</time></trkpt>
<trkpt lat="46.31646670" lon="7.41666670"><ele>1737</ele><time>2003-08-16T13:13:20Z</time></trkpt>
<trkpt lat="46.31695000" lon="7.41700000"><ele>1738</ele><time>2003-08-16T13:13:36Z</time></trkpt>
<trkpt lat="46.31731670" lon="7.41703330"><ele>1742</ele><time>2003-08-16T13:13:55Z</time></trkpt>
<trkpt lat="46.31753330" lon="7.41718330"><ele>1743</ele><time>2003-08-16T13:14:07Z</time></trkpt>
<trkpt lat="46.31768330" lon="7.41735000"><ele>1747</ele><time>2003-08-16T13:14:18Z</time></trkpt>
<trkpt lat="46.31770000" lon="7.41741670"><ele>1748</ele><time>2003-08-16T13:14:21Z</time></trkpt>
<trkpt lat="46.31776670" lon="7.41743330"><ele>1748</ele><time>2003-08-16T13:14:30Z</time></trkpt>
<trkpt lat="46.31775000" lon="7.41756670"><ele>1750</ele><time>2003-08-16T13:14:37Z</time></trkpt>
<trkpt lat="46.31763330" lon="7.41770000"><ele>1748</ele><time>2003-08-16T13:14:42Z</time></trkpt>
<trkpt lat="46.31751670" lon="7.41811670"><ele>1746</ele><time>2003-08-16T13:14:50Z</time></trkpt>
<trkpt lat="46.31766670" lon="7.41851670"><ele>1746</ele><time>2003-08-16T13:15:06Z</time></trkpt>
<trkpt lat="46.31775000" lon="7.41885000"><ele>1746</ele><time>2003-08-16T13:15:16Z</time></trkpt>
<trkpt lat="46.31811670" lon="7.41933330"><ele>1747</ele><time>2003-08-16T13:15:27Z</time></trkpt>
<trkpt lat="46.31813330" lon="7.41971670"><ele>1748</ele><time>2003-08-16T13:15:34Z</time></trkpt>
<trkpt lat="46.31805000" lon="7.41990000"><ele>1749</ele><time>2003-08-16T13:15:39Z</time></trkpt>
<trkpt lat="46.31818330" lon="7.42061670"><ele>1749</ele><time>2003-08-16T13:15:56Z</time></trkpt>
<trkpt lat="46.31818330" lon="7.42065000"><ele>1749</ele><time>2003-08-16T13:15:57Z</time></trkpt>
<trkpt lat="46.31808330" lon="7.42080000"><ele>1750</ele><time>2003-08-16T13:16:01Z</time></trkpt>
<trkpt lat="46.31773330" lon="7.42105000"><ele>1747</ele><time>2003-08-16T13:16:13Z</time></trkpt>
<trkpt lat="46.31770000" lon="7.42108330"><ele>1747</ele><time>2003-08-16T13:16:14Z</time></trkpt>
<trkpt lat="46.31776670" lon="7.42130000"><ele>1746</ele><time>2003-08-16T13:16:18Z</time></trkpt>
<trkpt lat="46.31791670" lon="7.42228330"><ele>1751</ele><time>2003-08-16T13:16:39Z</time></trkpt>
<trkpt lat="46.31790000" lon="7.42228330"><ele>1755</ele><time>2003-08-16T13:17:14Z</time></trkpt>
<trkpt lat="46.31798330" lon="7.42235000"><ele>1755</ele><time>2003-08-16T13:17:19Z</time></trkpt>
<trkpt lat="46.31863330" lon="7.42353330"><ele>1752</ele><time>2003-08-16T13:17:43Z</time></trkpt>
<trkpt lat="46.31895000" lon="7.42405000"><ele>1751</ele><time>2003-08-16T13:17:55Z</time></trkpt>
<trkpt lat="46.31946670" lon="7.42475000"><ele>1752</ele><time>2003-08-16T13:18:10Z</time></trkpt>
<trkpt lat="46.31930000" lon="7.42558330"><ele>1751</ele><time>2003-08-16T13:18:25Z</time></trkpt>
<trkpt lat="46.31910000" lon="7.42588330"><ele>1753</ele><time>2003-08-16T13:18:36Z</time></trkpt>
<trkpt lat="46.31900000" lon="7.42616670"><ele>1756</ele><time>2003-08-16T13:18:46Z</time></trkpt>
<trkpt lat="46.31901670" lon="7.42631670"><ele>1757</ele><time>2003-08-16T13:18:57Z</time></trkpt>
<trkpt lat="46.31935000" lon="7.42728330"><ele>1759</ele><time>2003-08-16T13:19:33Z</time></trkpt>
<trkpt lat="46.31900000" lon="7.42785000"><ele>1757</ele><time>2003-08-16T13:19:45Z</time></trkpt>
<trkpt lat="46.31896670" lon="7.42795000"><ele>1757</ele><time>2003-08-16T13:19:47Z</time></trkpt>
<trkpt lat="46.31926670" lon="7.42951670"><ele>1754</ele><time>2003-08-16T13:20:15Z</time></trkpt>
<trkpt lat="46.31933330" lon="7.42968330"><ele>1752</ele><time>2003-08-16T13:20:20Z</time></trkpt>
<trkpt lat="46.32003330" lon="7.42978330"><ele>1748</ele><time>2003-08-16T13:20:40Z</time></trkpt>
<trkpt lat="46.32045000" lon="7.43013330"><ele>1743</ele><time>2003-08-16T13:20:50Z</time></trkpt>
<trkpt lat="46.32068330" lon="7.43058330"><ele>1740</ele><time>2003-08-16T13:20:57Z</time></trkpt>
<trkpt lat="46.32131670" lon="7.43148330"><ele>1732</ele><time>2003-08-16T13:21:14Z</time></trkpt>
<trkpt lat="46.32143330" lon="7.43165000"><ele>1732</ele><time>2003-08-16T13:21:17Z</time></trkpt>
<trkpt lat="46.32175000" lon="7.43175000"><ele>1724</ele><time>2003-08-16T13:21:24Z</time></trkpt>
<trkpt lat="46.32178330" lon="7.43203330"><ele>1719</ele><time>2003-08-16T13:21:30Z</time></trkpt>
<trkpt lat="46.32191670" lon="7.43233330"><ele>1712</ele><time>2003-08-16T13:21:36Z</time></trkpt>
<trkpt lat="46.32201670" lon="7.43243330"><ele>1710</ele><time>2003-08-16T13:21:39Z</time></trkpt>
<trkpt lat="46.32213330" lon="7.43263330"><ele>1707</ele><time>2003-08-16T13:21:43Z</time></trkpt>
<trkpt lat="46.32223330" lon="7.43295000"><ele>1701</ele><time>2003-08-16T13:21:50Z</time></trkpt>
<trkpt lat="46.32233330" lon="7.43308330"><ele>1697</ele><time>2003-08-16T13:21:53Z</time></trkpt>
<trkpt lat="46.32255000" lon="7.43353330"><ele>1691</ele><time>2003-08-16T13:22:02Z</time></trkpt>
<trkpt lat="46.32261670" lon="7.43376670"><ele>1689</ele><time>2003-08-16T13:22:06Z</time></trkpt>
<trkpt lat="46.32276670" lon="7.43411670"><ele>1682</ele><time>2003-08-16T13:22:14Z</time></trkpt>
<trkpt lat="46.32323330" lon="7.43451670"><ele>1675</ele><time>2003-08-16T13:22:29Z</time></trkpt>
<trkpt lat="46.32355000" lon="7.43465000"><ele>1668</ele><time>2003-08-16T13:22:39Z</time></trkpt>
<trkpt lat="46.32356670" lon="7.43460000"><ele>1667</ele><time>2003-08-16T13:22:45Z</time></trkpt>
<trkpt lat="46.32360000" lon="7.43466670"><ele>1664</ele><time>2003-08-16T13:22:51Z</time></trkpt>
<trkpt lat="46.32431670" lon="7.43438330"><ele>1660</ele><time>2003-08-16T13:23:30Z</time></trkpt>
<trkpt lat="46.32446670" lon="7.43428330"><ele>1660</ele><time>2003-08-16T13:23:40Z</time></trkpt>
<trkpt lat="46.32475000" lon="7.43426670"><ele>1659</ele><time>2003-08-16T13:23:56Z</time></trkpt>
<trkpt lat="46.32550000" lon="7.43471670"><ele>1668</ele><time>2003-08-16T13:24:36Z</time></trkpt>
<trkpt lat="46.32588330" lon="7.43486670"><ele>1673</ele><time>2003-08-16T13:24:56Z</time></trkpt>
<trkpt lat="46.32608330" lon="7.43508330"><ele>1674</ele><time>2003-08-16T13:25:09Z</time></trkpt>
<trkpt lat="46.32621670" lon="7.43555000"><ele>1678</ele><time>2003-08-16T13:25:26Z</time></trkpt>
<trkpt lat="46.32640000" lon="7.43586670"><ele>1679</ele><time>2003-08-16T13:25:40Z</time></trkpt>
<trkpt lat="46.32671670" lon="7.43668330"><ele>1682</ele><time>2003-08-16T13:26:15Z</time></trkpt>
<trkpt lat="46.32691670" lon="7.43690000"><ele>1686</ele><time>2003-08-16T13:26:29Z</time></trkpt>
<trkpt lat="46.32730000" lon="7.43751670"><ele>1692</ele><time>2003-08-16T13:27:01Z</time></trkpt>
<trkpt lat="46.32775000" lon="7.43785000"><ele>1698</ele><time>2003-08-16T13:27:30Z</time></trkpt>
<trkpt lat="46.32820000" lon="7.43801670"><ele>1703</ele><time>2003-08-16T13:27:59Z</time></trkpt>
<trkpt lat="46.32848330" lon="7.43820000"><ele>1706</ele><time>2003-08-16T13:28:16Z</time></trkpt>
<trkpt lat="46.32910000" lon="7.43818330"><ele>1712</ele><time>2003-08-16T13:28:49Z</time></trkpt>
<trkpt lat="46.32941670" lon="7.43810000"><ele>1714</ele><time>2003-08-16T13:29:09Z</time></trkpt>
<trkpt lat="46.32968330" lon="7.43810000"><ele>1717</ele><time>2003-08-16T13:29:25Z</time></trkpt>
<trkpt lat="46.33010000" lon="7.43820000"><ele>1721</ele><time>2003-08-16T13:29:49Z</time></trkpt>
<trkpt lat="46.33038330" lon="7.43811670"><ele>1723</ele><time>2003-08-16T13:30:03Z</time></trkpt>
<trkpt lat="46.33103330" lon="7.43840000"><ele>1729</ele><time>2003-08-16T13:30:36Z</time></trkpt>
<trkpt lat="46.33155000" lon="7.43848330"><ele>1740</ele><time>2003-08-16T13:31:07Z</time></trkpt>
<trkpt lat="46.33176670" lon="7.43830000"><ele>1743</ele><time>2003-08-16T13:31:21Z</time></trkpt>
<trkpt lat="46.33188330" lon="7.43803330"><ele>1745</ele><time>2003-08-16T13:31:33Z</time></trkpt>
<trkpt lat="46.33205000" lon="7.43808330"><ele>1751</ele><time>2003-08-16T13:31:45Z</time></trkpt>
<trkpt lat="46.33210000" lon="7.43815000"><ele>1751</ele><time>2003-08-16T13:31:49Z</time></trkpt>
<trkpt lat="46.33238330" lon="7.43816670"><ele>1755</ele><time>2003-08-16T13:32:04Z</time></trkpt>
<trkpt lat="46.33253330" lon="7.43793330"><ele>1758</ele><time>2003-08-16T13:32:15Z</time></trkpt>
<trkpt lat="46.33255000" lon="7.43741670"><ele>1764</ele><time>2003-08-16T13:32:33Z</time></trkpt>
<trkpt lat="46.33251670" lon="7.43703330"><ele>1768</ele><time>2003-08-16T13:32:46Z</time></trkpt>
<trkpt lat="46.33251670" lon="7.43618330"><ele>1779</ele><time>2003-08-16T13:33:25Z</time></trkpt>
<trkpt lat="46.33245000" lon="7.43585000"><ele>1782</ele><time>2003-08-16T13:33:39Z</time></trkpt>
<trkpt lat="46.33246670" lon="7.43546670"><ele>1782</ele><time>2003-08-16T13:33:54Z</time></trkpt>
<trkpt lat="46.33231670" lon="7.43438330"><ele>1783</ele><time>2003-08-16T13:34:40Z</time></trkpt>
<trkpt lat="46.33221670" lon="7.43408330"><ele>1783</ele><time>2003-08-16T13:34:52Z</time></trkpt>
<trkpt lat="46.33205000" lon="7.43401670"><ele>1781</ele><time>2003-08-16T13:35:06Z</time></trkpt>
<trkpt lat="46.33186670" lon="7.43408330"><ele>1784</ele><time>2003-08-16T13:35:18Z</time></trkpt>
<trkpt lat="46.33173330" lon="7.43426670"><ele>1785</ele><time>2003-08-16T13:35:27Z</time></trkpt>
<trkpt lat="46.33163330" lon="7.43465000"><ele>1789</ele><time>2003-08-16T13:35:46Z</time></trkpt>
<trkpt lat="46.33146670" lon="7.43480000"><ele>1789</ele><time>2003-08-16T13:36:01Z</time></trkpt>
<trkpt lat="46.33071670" lon="7.43511670"><ele>1804</ele><time>2003-08-16T13:36:56Z</time></trkpt>
<trkpt lat="46.33066670" lon="7.43496670"><ele>1807</ele><time>2003-08-16T13:37:06Z</time></trkpt>
<trkpt lat="46.33090000" lon="7.43451670"><ele>1811</ele><time>2003-08-16T13:37:36Z</time></trkpt>
<trkpt lat="46.33105000" lon="7.43428330"><ele>1815</ele><time>2003-08-16T13:37:52Z</time></trkpt>
<trkpt lat="46.33125000" lon="7.43405000"><ele>1817</ele><time>2003-08-16T13:38:09Z</time></trkpt>
<trkpt lat="46.33150000" lon="7.43331670"><ele>1820</ele><time>2003-08-16T13:38:40Z</time></trkpt>
<trkpt lat="46.33156670" lon="7.43305000"><ele>1819</ele><time>2003-08-16T13:38:53Z</time></trkpt>
<trkpt lat="46.33173330" lon="7.43293330"><ele>1822</ele><time>2003-08-16T13:39:06Z</time></trkpt>
<trkpt lat="46.33173330" lon="7.43286670"><ele>1823</ele><time>2003-08-16T13:39:09Z</time></trkpt>
<trkpt lat="46.33160000" lon="7.43286670"><ele>1826</ele><time>2003-08-16T13:39:19Z</time></trkpt>
<trkpt lat="46.33136670" lon="7.43310000"><ele>1826</ele><time>2003-08-16T13:39:36Z</time></trkpt>
<trkpt lat="46.33120000" lon="7.43333330"><ele>1824</ele><time>2003-08-16T13:39:50Z</time></trkpt>
<trkpt lat="46.33043330" lon="7.43386670"><ele>1831</ele><time>2003-08-16T13:40:36Z</time></trkpt>
<trkpt lat="46.33028330" lon="7.43401670"><ele>1831</ele><time>2003-08-16T13:40:51Z</time></trkpt>
<trkpt lat="46.33015000" lon="7.43398330"><ele>1834</ele><time>2003-08-16T13:40:58Z</time></trkpt>
<trkpt lat="46.33000000" lon="7.43370000"><ele>1838</ele><time>2003-08-16T13:41:12Z</time></trkpt>
<trkpt lat="46.32976670" lon="7.43368330"><ele>1842</ele><time>2003-08-16T13:41:27Z</time></trkpt>
<trkpt lat="46.32938330" lon="7.43400000"><ele>1852</ele><time>2003-08-16T13:41:53Z</time></trkpt>
<trkpt lat="46.32933330" lon="7.43398330"><ele>1854</ele><time>2003-08-16T13:41:57Z</time></trkpt>
<trkpt lat="46.32893330" lon="7.43355000"><ele>1858</ele><time>2003-08-16T13:42:28Z</time></trkpt>
<trkpt lat="46.32890000" lon="7.43320000"><ele>1862</ele><time>2003-08-16T13:42:42Z</time></trkpt>
<trkpt lat="46.32903330" lon="7.43290000"><ele>1864</ele><time>2003-08-16T13:42:57Z</time></trkpt>
<trkpt lat="46.32923330" lon="7.43265000"><ele>1864</ele><time>2003-08-16T13:43:12Z</time></trkpt>
<trkpt lat="46.32916670" lon="7.43245000"><ele>1865</ele><time>2003-08-16T13:43:21Z</time></trkpt>
<trkpt lat="46.32890000" lon="7.43236670"><ele>1868</ele><time>2003-08-16T13:43:36Z</time></trkpt>
<trkpt lat="46.32886670" lon="7.43220000"><ele>1869</ele><time>2003-08-16T13:43:48Z</time></trkpt>
<trkpt lat="46.32893330" lon="7.43211670"><ele>1869</ele><time>2003-08-16T13:43:56Z</time></trkpt>
<trkpt lat="46.32906670" lon="7.43206670"><ele>1869</ele><time>2003-08-16T13:44:05Z</time></trkpt>
<trkpt lat="46.32936670" lon="7.43188330"><ele>1872</ele><time>2003-08-16T13:44:23Z</time></trkpt>
<trkpt lat="46.32963330" lon="7.43191670"><ele>1879</ele><time>2003-08-16T13:44:38Z</time></trkpt>
<trkpt lat="46.32988330" lon="7.43176670"><ele>1881</ele><time>2003-08-16T13:44:51Z</time></trkpt>
<trkpt lat="46.33020000" lon="7.43191670"><ele>1883</ele><time>2003-08-16T13:45:08Z</time></trkpt>
<trkpt lat="46.33046670" lon="7.43168330"><ele>1886</ele><time>2003-08-16T13:45:29Z</time></trkpt>
<trkpt lat="46.33071670" lon="7.43155000"><ele>1890</ele><time>2003-08-16T13:45:45Z</time></trkpt>
<trkpt lat="46.33080000" lon="7.43123330"><ele>1892</ele><time>2003-08-16T13:46:00Z</time></trkpt>
<trkpt lat="46.33078330" lon="7.43088330"><ele>1894</ele><time>2003-08-16T13:46:14Z</time></trkpt>
<trkpt lat="46.33058330" lon="7.43013330"><ele>1901</ele><time>2003-08-16T13:46:43Z</time></trkpt>
<trkpt lat="46.33043330" lon="7.42975000"><ele>1901</ele><time>2003-08-16T13:46:57Z</time></trkpt>
<trkpt lat="46.33026670" lon="7.42965000"><ele>1902</ele><time>2003-08-16T13:47:09Z</time></trkpt>
<trkpt lat="46.32990000" lon="7.42953330"><ele>1907</ele><time>2003-08-16T13:47:39Z</time></trkpt>
<trkpt lat="46.32965000" lon="7.42950000"><ele>1910</ele><time>2003-08-16T13:47:56Z</time></trkpt>
<trkpt lat="46.32946670" lon="7.42958330"><ele>1913</ele><time>2003-08-16T13:48:12Z</time></trkpt>
<trkpt lat="46.32941670" lon="7.42956670"><ele>1914</ele><time>2003-08-16T13:48:16Z</time></trkpt>
<trkpt lat="46.32941670" lon="7.42938330"><ele>1917</ele><time>2003-08-16T13:48:27Z</time></trkpt>
<trkpt lat="46.32978330" lon="7.42816670"><ele>1925</ele><time>2003-08-16T13:49:23Z</time></trkpt>
<trkpt lat="46.33021670" lon="7.42743330"><ele>1930</ele><time>2003-08-16T13:50:11Z</time></trkpt>
<trkpt lat="46.33038330" lon="7.42730000"><ele>1934</ele><time>2003-08-16T13:50:27Z</time></trkpt>
<trkpt lat="46.33053330" lon="7.42711670"><ele>1938</ele><time>2003-08-16T13:50:42Z</time></trkpt>
<trkpt lat="46.33041670" lon="7.42690000"><ele>1940</ele><time>2003-08-16T13:50:56Z</time></trkpt>
<trkpt lat="46.33033330" lon="7.42683330"><ele>1941</ele><time>2003-08-16T13:51:03Z</time></trkpt>
<trkpt lat="46.33026670" lon="7.42683330"><ele>1942</ele><time>2003-08-16T13:51:25Z</time></trkpt>
<trkpt lat="46.33015000" lon="7.42698330"><ele>1943</ele><time>2003-08-16T13:51:39Z</time></trkpt>
<trkpt lat="46.32991670" lon="7.42720000"><ele>1948</ele><time>2003-08-16T13:51:56Z</time></trkpt>
<trkpt lat="46.32970000" lon="7.42720000"><ele>1947</ele><time>2003-08-16T13:52:08Z</time></trkpt>
<trkpt lat="46.32925000" lon="7.42675000"><ele>1952</ele><time>2003-08-16T13:52:35Z</time></trkpt>
<trkpt lat="46.32910000" lon="7.42655000"><ele>1954</ele><time>2003-08-16T13:52:51Z</time></trkpt>
<trkpt lat="46.32893330" lon="7.42610000"><ele>1961</ele><time>2003-08-16T13:53:20Z</time></trkpt>
<trkpt lat="46.32890000" lon="7.42610000"><ele>1961</ele><time>2003-08-16T13:53:21Z</time></trkpt>
<trkpt lat="46.32866670" lon="7.42556670"><ele>1971</ele><time>2003-08-16T13:54:01Z</time></trkpt>
<trkpt lat="46.32855000" lon="7.42541670"><ele>1977</ele><time>2003-08-16T13:54:17Z</time></trkpt>
<trkpt lat="46.32838330" lon="7.42516670"><ele>1982</ele><time>2003-08-16T13:54:41Z</time></trkpt>
<trkpt lat="46.32825000" lon="7.42498330"><ele>1984</ele><time>2003-08-16T13:54:57Z</time></trkpt>
<trkpt lat="46.32805000" lon="7.42481670"><ele>1985</ele><time>2003-08-16T13:55:13Z</time></trkpt>
<trkpt lat="46.32793330" lon="7.42441670"><ele>1990</ele><time>2003-08-16T13:55:36Z</time></trkpt>
<trkpt lat="46.32781670" lon="7.42426670"><ele>1989</ele><time>2003-08-16T13:55:43Z</time></trkpt>
<trkpt lat="46.32748330" lon="7.42413330"><ele>1988</ele><time>2003-08-16T13:55:54Z</time></trkpt>
<trkpt lat="46.32721670" lon="7.42420000"><ele>1988</ele><time>2003-08-16T13:56:03Z</time></trkpt>
<trkpt lat="46.32715000" lon="7.42441670"><ele>1987</ele><time>2003-08-16T13:56:11Z</time></trkpt>
<trkpt lat="46.32701670" lon="7.42463330"><ele>1987</ele><time>2003-08-16T13:56:24Z</time></trkpt>
<trkpt lat="46.32678330" lon="7.42460000"><ele>1987</ele><time>2003-08-16T13:56:37Z</time></trkpt>
<trkpt lat="46.32646670" lon="7.42450000"><ele>1989</ele><time>2003-08-16T13:56:50Z</time></trkpt>
<trkpt lat="46.32611670" lon="7.42426670"><ele>1987</ele><time>2003-08-16T13:56:58Z</time></trkpt>
<trkpt lat="46.32611670" lon="7.42416670"><ele>1987</ele><time>2003-08-16T13:56:59Z</time></trkpt>
<trkpt lat="46.32593330" lon="7.42378330"><ele>1989</ele><time>2003-08-16T13:57:09Z</time></trkpt>
<trkpt lat="46.32550000" lon="7.42368330"><ele>1993</ele><time>2003-08-16T13:57:35Z</time></trkpt>
<trkpt lat="46.32526670" lon="7.42331670"><ele>2000</ele><time>2003-08-16T13:57:54Z</time></trkpt>
<trkpt lat="46.32500000" lon="7.42325000"><ele>2001</ele><time>2003-08-16T13:58:08Z</time></trkpt>
<trkpt lat="46.32485000" lon="7.42301670"><ele>2005</ele><time>2003-08-16T13:58:21Z</time></trkpt>
<trkpt lat="46.32445000" lon="7.42258330"><ele>2010</ele><time>2003-08-16T13:58:49Z</time></trkpt>
<trkpt lat="46.32426670" lon="7.42230000"><ele>2011</ele><time>2003-08-16T13:59:01Z</time></trkpt>
<trkpt lat="46.32418330" lon="7.42165000"><ele>2016</ele><time>2003-08-16T13:59:27Z</time></trkpt>
<trkpt lat="46.32421670" lon="7.42085000"><ele>2014</ele><time>2003-08-16T14:01:27Z</time></trkpt>
<trkpt lat="46.32433330" lon="7.42068330"><ele>2014</ele><time>2003-08-16T14:01:40Z</time></trkpt>
<trkpt lat="46.32450000" lon="7.42053330"><ele>2014</ele><time>2003-08-16T14:01:54Z</time></trkpt>
<trkpt lat="46.32456670" lon="7.41990000"><ele>2018</ele><time>2003-08-16T14:02:21Z</time></trkpt>
<trkpt lat="46.32433330" lon="7.41883330"><ele>2026</ele><time>2003-08-16T14:03:02Z</time></trkpt>
<trkpt lat="46.32401670" lon="7.41825000"><ele>2033</ele><time>2003-08-16T14:03:38Z</time></trkpt>
<trkpt lat="46.32388330" lon="7.41778330"><ele>2041</ele><time>2003-08-16T14:04:07Z</time></trkpt>
<trkpt lat="46.32381670" lon="7.41765000"><ele>2042</ele><time>2003-08-16T14:04:16Z</time></trkpt>
<trkpt lat="46.32365000" lon="7.41673330"><ele>2046</ele><time>2003-08-16T14:04:59Z</time></trkpt>
<trkpt lat="46.32365000" lon="7.41645000"><ele>2046</ele><time>2003-08-16T14:05:11Z</time></trkpt>
<trkpt lat="46.32341670" lon="7.41563330"><ele>2052</ele><time>2003-08-16T14:05:54Z</time></trkpt>
<trkpt lat="46.32340000" lon="7.41531670"><ele>2052</ele><time>2003-08-16T14:06:08Z</time></trkpt>
<trkpt lat="46.32323330" lon="7.41478330"><ele>2053</ele><time>2003-08-16T14:06:31Z</time></trkpt>
<trkpt lat="46.32311670" lon="7.41411670"><ele>2060</ele><time>2003-08-16T14:07:00Z</time></trkpt>
<trkpt lat="46.32298330" lon="7.41360000"><ele>2061</ele><time>2003-08-16T14:07:28Z</time></trkpt>
<trkpt lat="46.32288330" lon="7.41330000"><ele>2065</ele><time>2003-08-16T14:08:00Z</time></trkpt>
<trkpt lat="46.32283330" lon="7.41285000"><ele>2066</ele><time>2003-08-16T14:08:20Z</time></trkpt>
<trkpt lat="46.32276670" lon="7.41256670"><ele>2066</ele><time>2003-08-16T14:08:33Z</time></trkpt>
<trkpt lat="46.32265000" lon="7.41235000"><ele>2066</ele><time>2003-08-16T14:08:44Z</time></trkpt>
<trkpt lat="46.32246670" lon="7.41181670"><ele>2064</ele><time>2003-08-16T14:09:00Z</time></trkpt>
<trkpt lat="46.32165000" lon="7.41038330"><ele>2066</ele><time>2003-08-16T14:09:32Z</time></trkpt>
<trkpt lat="46.32155000" lon="7.41003330"><ele>2068</ele><time>2003-08-16T14:09:43Z</time></trkpt>
<trkpt lat="46.32135000" lon="7.40973330"><ele>2066</ele><time>2003-08-16T14:09:54Z</time></trkpt>
<trkpt lat="46.32118330" lon="7.40933330"><ele>2067</ele><time>2003-08-16T14:10:07Z</time></trkpt>
<trkpt lat="46.32098330" lon="7.40853330"><ele>2066</ele><time>2003-08-16T14:10:29Z</time></trkpt>
<trkpt lat="46.32078330" lon="7.40815000"><ele>2066</ele><time>2003-08-16T14:10:43Z</time></trkpt>
<trkpt lat="46.32068330" lon="7.40765000"><ele>2065</ele><time>2003-08-16T14:10:53Z</time></trkpt>
<trkpt lat="46.32053330" lon="7.40736670"><ele>2067</ele><time>2003-08-16T14:11:02Z</time></trkpt>
<trkpt lat="46.32041670" lon="7.40658330"><ele>2070</ele><time>2003-08-16T14:11:24Z</time></trkpt>
<trkpt lat="46.32041670" lon="7.40628330"><ele>2068</ele><time>2003-08-16T14:11:30Z</time></trkpt>
<trkpt lat="46.32028330" lon="7.40600000"><ele>2066</ele><time>2003-08-16T14:11:35Z</time></trkpt>
<trkpt lat="46.32006670" lon="7.40585000"><ele>2064</ele><time>2003-08-16T14:11:39Z</time></trkpt>
<trkpt lat="46.31996670" lon="7.40565000"><ele>2065</ele><time>2003-08-16T14:11:43Z</time></trkpt>
<trkpt lat="46.31980000" lon="7.40513330"><ele>2072</ele><time>2003-08-16T14:12:12Z</time></trkpt>
<trkpt lat="46.31945000" lon="7.40463330"><ele>2078</ele><time>2003-08-16T14:12:57Z</time></trkpt>
<trkpt lat="46.31926670" lon="7.40445000"><ele>2080</ele><time>2003-08-16T14:13:13Z</time></trkpt>
<trkpt lat="46.31893330" lon="7.40423330"><ele>2080</ele><time>2003-08-16T14:13:41Z</time></trkpt>
<trkpt lat="46.31885000" lon="7.40423330"><ele>2080</ele><time>2003-08-16T14:13:46Z</time></trkpt>
<trkpt lat="46.31871670" lon="7.40436670"><ele>2081</ele><time>2003-08-16T14:13:58Z</time></trkpt>
<trkpt lat="46.31855000" lon="7.40443330"><ele>2082</ele><time>2003-08-16T14:14:10Z</time></trkpt>
<trkpt lat="46.31775000" lon="7.40408330"><ele>2078</ele><time>2003-08-16T14:14:40Z</time></trkpt>
<trkpt lat="46.31655000" lon="7.40363330"><ele>2074</ele><time>2003-08-16T14:15:20Z</time></trkpt>
<trkpt lat="46.31626670" lon="7.40271670"><ele>2066</ele><time>2003-08-16T14:15:40Z</time></trkpt>
<trkpt lat="46.31628330" lon="7.40211670"><ele>2062</ele><time>2003-08-16T14:15:49Z</time></trkpt>
<trkpt lat="46.31625000" lon="7.40181670"><ele>2061</ele><time>2003-08-16T14:15:53Z</time></trkpt>
<trkpt lat="46.31635000" lon="7.40128330"><ele>2059</ele><time>2003-08-16T14:16:01Z</time></trkpt>
<trkpt lat="46.31631670" lon="7.40090000"><ele>2057</ele><time>2003-08-16T14:16:07Z</time></trkpt>
<trkpt lat="46.31610000" lon="7.40050000"><ele>2053</ele><time>2003-08-16T14:16:17Z</time></trkpt>
<trkpt lat="46.31603330" lon="7.40045000"><ele>2052</ele><time>2003-08-16T14:16:24Z</time></trkpt>
<trkpt lat="46.31605000" lon="7.40018330"><ele>2048</ele><time>2003-08-16T14:16:48Z</time></trkpt>
<trkpt lat="46.31596670" lon="7.39988330"><ele>2044</ele><time>2003-08-16T14:16:58Z</time></trkpt>
<trkpt lat="46.31558330" lon="7.39936670"><ele>2042</ele><time>2003-08-16T14:17:11Z</time></trkpt>
<trkpt lat="46.31521670" lon="7.39928330"><ele>2036</ele><time>2003-08-16T14:17:18Z</time></trkpt>
<trkpt lat="46.31496670" lon="7.39898330"><ele>2029</ele><time>2003-08-16T14:17:28Z</time></trkpt>
<trkpt lat="46.31468330" lon="7.39893330"><ele>2022</ele><time>2003-08-16T14:17:38Z</time></trkpt>
<trkpt lat="46.31440000" lon="7.39861670"><ele>2018</ele><time>2003-08-16T14:17:50Z</time></trkpt>
<trkpt lat="46.31388330" lon="7.39851670"><ele>2010</ele><time>2003-08-16T14:18:09Z</time></trkpt>
<trkpt lat="46.31351670" lon="7.39853330"><ele>2005</ele><time>2003-08-16T14:18:18Z</time></trkpt>
<trkpt lat="46.31341670" lon="7.39848330"><ele>2004</ele><time>2003-08-16T14:18:21Z</time></trkpt>
<trkpt lat="46.31310000" lon="7.39846670"><ele>2001</ele><time>2003-08-16T14:18:27Z</time></trkpt>
<trkpt lat="46.31291670" lon="7.39831670"><ele>1999</ele><time>2003-08-16T14:18:32Z</time></trkpt>
<trkpt lat="46.31255000" lon="7.39788330"><ele>2000</ele><time>2003-08-16T14:18:45Z</time></trkpt>
<trkpt lat="46.31236670" lon="7.39786670"><ele>2001</ele><time>2003-08-16T14:18:55Z</time></trkpt>
<trkpt lat="46.31216670" lon="7.39776670"><ele>2000</ele><time>2003-08-16T14:19:06Z</time></trkpt>
<trkpt lat="46.31201670" lon="7.39755000"><ele>2001</ele><time>2003-08-16T14:19:16Z</time></trkpt>
<trkpt lat="46.31176670" lon="7.39750000"><ele>2002</ele><time>2003-08-16T14:19:26Z</time></trkpt>
<trkpt lat="46.31123330" lon="7.39703330"><ele>2005</ele><time>2003-08-16T14:20:01Z</time></trkpt>
<trkpt lat="46.31118330" lon="7.39703330"><ele>2005</ele><time>2003-08-16T14:20:14Z</time></trkpt>
<trkpt lat="46.31116670" lon="7.39711670"><ele>2004</ele><time>2003-08-16T14:21:05Z</time></trkpt>
<trkpt lat="46.31093330" lon="7.39721670"><ele>2002</ele><time>2003-08-16T14:21:16Z</time></trkpt>
<trkpt lat="46.31080000" lon="7.39718330"><ele>2003</ele><time>2003-08-16T14:21:20Z</time></trkpt>
<trkpt lat="46.31041670" lon="7.39683330"><ele>2002</ele><time>2003-08-16T14:21:40Z</time></trkpt>
<trkpt lat="46.30981670" lon="7.39643330"><ele>2001</ele><time>2003-08-16T14:22:03Z</time></trkpt>
<trkpt lat="46.30961670" lon="7.39615000"><ele>2004</ele><time>2003-08-16T14:22:10Z</time></trkpt>
<trkpt lat="46.30948330" lon="7.39590000"><ele>2004</ele><time>2003-08-16T14:22:19Z</time></trkpt>
<trkpt lat="46.30931670" lon="7.39575000"><ele>2006</ele><time>2003-08-16T14:22:27Z</time></trkpt>
<trkpt lat="46.30841670" lon="7.39538330"><ele>1998</ele><time>2003-08-16T14:23:04Z</time></trkpt>
<trkpt lat="46.30756670" lon="7.39510000"><ele>1983</ele><time>2003-08-16T14:23:24Z</time></trkpt>
<trkpt lat="46.30720000" lon="7.39493330"><ele>1975</ele><time>2003-08-16T14:23:34Z</time></trkpt>
<trkpt lat="46.30728330" lon="7.39441670"><ele>1973</ele><time>2003-08-16T14:23:43Z</time></trkpt>
<trkpt lat="46.30715000" lon="7.39400000"><ele>1971</ele><time>2003-08-16T14:23:50Z</time></trkpt>
<trkpt lat="46.30700000" lon="7.39376670"><ele>1970</ele><time>2003-08-16T14:23:55Z</time></trkpt>
<trkpt lat="46.30690000" lon="7.39355000"><ele>1970</ele><time>2003-08-16T14:23:59Z</time></trkpt>
<trkpt lat="46.30685000" lon="7.39338330"><ele>1969</ele><time>2003-08-16T14:24:02Z</time></trkpt>
<trkpt lat="46.30661670" lon="7.39298330"><ele>1969</ele><time>2003-08-16T14:24:12Z</time></trkpt>
<trkpt lat="46.30633330" lon="7.39276670"><ele>1969</ele><time>2003-08-16T14:24:22Z</time></trkpt>
<trkpt lat="46.30588330" lon="7.39226670"><ele>1969</ele><time>2003-08-16T14:24:44Z</time></trkpt>
<trkpt lat="46.30556670" lon="7.39201670"><ele>1969</ele><time>2003-08-16T14:24:57Z</time></trkpt>
<trkpt lat="46.30541670" lon="7.39206670"><ele>1976</ele><time>2003-08-16T14:25:41Z</time></trkpt>
<trkpt lat="46.30520000" lon="7.39206670"><ele>1973</ele><time>2003-08-16T14:25:48Z</time></trkpt>
<trkpt lat="46.30506670" lon="7.39198330"><ele>1972</ele><time>2003-08-16T14:25:51Z</time></trkpt>
<trkpt lat="46.30458330" lon="7.39115000"><ele>1971</ele><time>2003-08-16T14:26:15Z</time></trkpt>
<trkpt lat="46.30441670" lon="7.39083330"><ele>1975</ele><time>2003-08-16T14:26:28Z</time></trkpt>
<trkpt lat="46.30421670" lon="7.39071670"><ele>1973</ele><time>2003-08-16T14:26:33Z</time></trkpt>
<trkpt lat="46.30391670" lon="7.39076670"><ele>1972</ele><time>2003-08-16T14:26:41Z</time></trkpt>
<trkpt lat="46.30366670" lon="7.39070000"><ele>1970</ele><time>2003-08-16T14:26:48Z</time></trkpt>
<trkpt lat="46.30356670" lon="7.39055000"><ele>1970</ele><time>2003-08-16T14:26:55Z</time></trkpt>
<trkpt lat="46.30343330" lon="7.39001670"><ele>1967</ele><time>2003-08-16T14:28:17Z</time></trkpt>
<trkpt lat="46.30305000" lon="7.38933330"><ele>1960</ele><time>2003-08-16T14:28:30Z</time></trkpt>
<trkpt lat="46.30298330" lon="7.38900000"><ele>1957</ele><time>2003-08-16T14:28:35Z</time></trkpt>
<trkpt lat="46.30266670" lon="7.38836670"><ele>1951</ele><time>2003-08-16T14:28:46Z</time></trkpt>
<trkpt lat="46.30260000" lon="7.38828330"><ele>1950</ele><time>2003-08-16T14:28:48Z</time></trkpt>
<trkpt lat="46.30231670" lon="7.38801670"><ele>1946</ele><time>2003-08-16T14:28:56Z</time></trkpt>
<trkpt lat="46.30221670" lon="7.38783330"><ele>1944</ele><time>2003-08-16T14:29:03Z</time></trkpt>
<trkpt lat="46.30220000" lon="7.38765000"><ele>1939</ele><time>2003-08-16T14:29:41Z</time></trkpt>
<trkpt lat="46.30186670" lon="7.38736670"><ele>1935</ele><time>2003-08-16T14:29:49Z</time></trkpt>
<trkpt lat="46.30180000" lon="7.38736670"><ele>1934</ele><time>2003-08-16T14:29:51Z</time></trkpt>
<trkpt lat="46.30161670" lon="7.38721670"><ele>1933</ele><time>2003-08-16T14:29:56Z</time></trkpt>
<trkpt lat="46.30153330" lon="7.38706670"><ele>1932</ele><time>2003-08-16T14:29:59Z</time></trkpt>
<trkpt lat="46.30116670" lon="7.38690000"><ele>1929</ele><time>2003-08-16T14:30:09Z</time></trkpt>
<trkpt lat="46.30086670" lon="7.38660000"><ele>1927</ele><time>2003-08-16T14:30:17Z</time></trkpt>
<trkpt lat="46.30080000" lon="7.38650000"><ele>1926</ele><time>2003-08-16T14:30:19Z</time></trkpt>
<trkpt lat="46.30035000" lon="7.38615000"><ele>1924</ele><time>2003-08-16T14:30:29Z</time></trkpt>
<trkpt lat="46.29963330" lon="7.38553330"><ele>1922</ele><time>2003-08-16T14:30:51Z</time></trkpt>
<trkpt lat="46.29960000" lon="7.38533330"><ele>1945</ele><time>2003-08-16T14:31:15Z</time></trkpt>
<trkpt lat="46.29938330" lon="7.38511670"><ele>1944</ele><time>2003-08-16T14:31:27Z</time></trkpt>
<trkpt lat="46.29898330" lon="7.38480000"><ele>1945</ele><time>2003-08-16T14:31:37Z</time></trkpt>
<trkpt lat="46.29826670" lon="7.38436670"><ele>1944</ele><time>2003-08-16T14:31:52Z</time></trkpt>
<trkpt lat="46.29765000" lon="7.38456670"><ele>1934</ele><time>2003-08-16T14:32:01Z</time></trkpt>
<trkpt lat="46.29743330" lon="7.38475000"><ele>1927</ele><time>2003-08-16T14:32:06Z</time></trkpt>
<trkpt lat="46.29716670" lon="7.38486670"><ele>1924</ele><time>2003-08-16T14:32:12Z</time></trkpt>
<trkpt lat="46.29698330" lon="7.38488330"><ele>1922</ele><time>2003-08-16T14:32:16Z</time></trkpt>
<trkpt lat="46.29610000" lon="7.38436670"><ele>1898</ele><time>2003-08-16T14:32:37Z</time></trkpt>
<trkpt lat="46.29590000" lon="7.38436670"><ele>1893</ele><time>2003-08-16T14:32:41Z</time></trkpt>
<trkpt lat="46.29503330" lon="7.38413330"><ele>1891</ele><time>2003-08-16T14:32:56Z</time></trkpt>
<trkpt lat="46.29488330" lon="7.38428330"><ele>1886</ele><time>2003-08-16T14:33:01Z</time></trkpt>
<trkpt lat="46.29503330" lon="7.38460000"><ele>1883</ele><time>2003-08-16T14:33:07Z</time></trkpt>
<trkpt lat="46.29523330" lon="7.38490000"><ele>1881</ele><time>2003-08-16T14:33:13Z</time></trkpt>
<trkpt lat="46.29523330" lon="7.38500000"><ele>1878</ele><time>2003-08-16T14:33:15Z</time></trkpt>
<trkpt lat="46.29476670" lon="7.38511670"><ele>1873</ele><time>2003-08-16T14:33:26Z</time></trkpt>
<trkpt lat="46.29443330" lon="7.38511670"><ele>1865</ele><time>2003-08-16T14:33:35Z</time></trkpt>
<trkpt lat="46.29386670" lon="7.38503330"><ele>1850</ele><time>2003-08-16T14:33:51Z</time></trkpt>
<trkpt lat="46.29318330" lon="7.38445000"><ele>1836</ele><time>2003-08-16T14:34:07Z</time></trkpt>
<trkpt lat="46.29296670" lon="7.38383330"><ele>1832</ele><time>2003-08-16T14:34:16Z</time></trkpt>
<trkpt lat="46.29260000" lon="7.38300000"><ele>1830</ele><time>2003-08-16T14:34:30Z</time></trkpt>
<trkpt lat="46.29253330" lon="7.38241670"><ele>1830</ele><time>2003-08-16T14:34:36Z</time></trkpt>
<trkpt lat="46.29238330" lon="7.38206670"><ele>1827</ele><time>2003-08-16T14:34:41Z</time></trkpt>
<trkpt lat="46.29138330" lon="7.38075000"><ele>1807</ele><time>2003-08-16T14:35:09Z</time></trkpt>
<trkpt lat="46.29133330" lon="7.38090000"><ele>1797</ele><time>2003-08-16T14:35:17Z</time></trkpt>
<trkpt lat="46.29165000" lon="7.38288330"><ele>1764</ele><time>2003-08-16T14:36:02Z</time></trkpt>
<trkpt lat="46.29175000" lon="7.38420000"><ele>1762</ele><time>2003-08-16T14:36:25Z</time></trkpt>
<trkpt lat="46.29198330" lon="7.38583330"><ele>1737</ele><time>2003-08-16T14:36:49Z</time></trkpt>
<trkpt lat="46.29310000" lon="7.38881670"><ele>1689</ele><time>2003-08-16T14:37:35Z</time></trkpt>
<trkpt lat="46.29351670" lon="7.38933330"><ele>1678</ele><time>2003-08-16T14:37:47Z</time></trkpt>
<trkpt lat="46.29370000" lon="7.38956670"><ele>1673</ele><time>2003-08-16T14:37:52Z</time></trkpt>
<trkpt lat="46.29391670" lon="7.38993330"><ele>1669</ele><time>2003-08-16T14:37:58Z</time></trkpt>
<trkpt lat="46.29401670" lon="7.39001670"><ele>1667</ele><time>2003-08-16T14:38:00Z</time></trkpt>
<trkpt lat="46.29440000" lon="7.39068330"><ele>1661</ele><time>2003-08-16T14:38:11Z</time></trkpt>
<trkpt lat="46.29461670" lon="7.39113330"><ele>1656</ele><time>2003-08-16T14:38:21Z</time></trkpt>
<trkpt lat="46.29503330" lon="7.39153330"><ele>1650</ele><time>2003-08-16T14:38:36Z</time></trkpt>
<trkpt lat="46.29518330" lon="7.39161670"><ele>1646</ele><time>2003-08-16T14:38:41Z</time></trkpt>
<trkpt lat="46.29500000" lon="7.39166670"><ele>1643</ele><time>2003-08-16T14:38:46Z</time></trkpt>
<trkpt lat="46.29466670" lon="7.39156670"><ele>1636</ele><time>2003-08-16T14:38:56Z</time></trkpt>
<trkpt lat="46.29438330" lon="7.39136670"><ele>1630</ele><time>2003-08-16T14:39:04Z</time></trkpt>
<trkpt lat="46.29410000" lon="7.39128330"><ele>1623</ele><time>2003-08-16T14:39:13Z</time></trkpt>
<trkpt lat="46.29378330" lon="7.39143330"><ele>1617</ele><time>2003-08-16T14:39:24Z</time></trkpt>
<trkpt lat="46.29350000" lon="7.39135000"><ele>1612</ele><time>2003-08-16T14:39:32Z</time></trkpt>
<trkpt lat="46.29310000" lon="7.39130000"><ele>1613</ele><time>2003-08-16T14:39:44Z</time></trkpt>
<trkpt lat="46.29306670" lon="7.39136670"><ele>1610</ele><time>2003-08-16T14:46:03Z</time></trkpt>
<trkpt lat="46.29320000" lon="7.39158330"><ele>1611</ele><time>2003-08-16T14:46:16Z</time></trkpt>
<trkpt lat="46.29378330" lon="7.39196670"><ele>1600</ele><time>2003-08-16T14:46:42Z</time></trkpt>
<trkpt lat="46.29373330" lon="7.39210000"><ele>1598</ele><time>2003-08-16T14:46:47Z</time></trkpt>
<trkpt lat="46.29340000" lon="7.39211670"><ele>1593</ele><time>2003-08-16T14:46:57Z</time></trkpt>
<trkpt lat="46.29326670" lon="7.39231670"><ele>1588</ele><time>2003-08-16T14:47:06Z</time></trkpt>
<trkpt lat="46.29318330" lon="7.39266670"><ele>1579</ele><time>2003-08-16T14:47:22Z</time></trkpt>
<trkpt lat="46.29305000" lon="7.39273330"><ele>1576</ele><time>2003-08-16T14:47:33Z</time></trkpt>
<trkpt lat="46.29303330" lon="7.39285000"><ele>1575</ele><time>2003-08-16T14:47:39Z</time></trkpt>
<trkpt lat="46.29305000" lon="7.39293330"><ele>1575</ele><time>2003-08-16T14:47:44Z</time></trkpt>
<trkpt lat="46.29328330" lon="7.39303330"><ele>1575</ele><time>2003-08-16T14:47:49Z</time></trkpt>
<trkpt lat="46.29341670" lon="7.39316670"><ele>1575</ele><time>2003-08-16T14:47:52Z</time></trkpt>
<trkpt lat="46.29365000" lon="7.39376670"><ele>1571</ele><time>2003-08-16T14:48:03Z</time></trkpt>
<trkpt lat="46.29378330" lon="7.39445000"><ele>1569</ele><time>2003-08-16T14:48:17Z</time></trkpt>
<trkpt lat="46.29400000" lon="7.39471670"><ele>1567</ele><time>2003-08-16T14:48:22Z</time></trkpt>
<trkpt lat="46.29418330" lon="7.39480000"><ele>1567</ele><time>2003-08-16T14:48:26Z</time></trkpt>
<trkpt lat="46.29438330" lon="7.39480000"><ele>1567</ele><time>2003-08-16T14:48:30Z</time></trkpt>
<trkpt lat="46.29451670" lon="7.39470000"><ele>1565</ele><time>2003-08-16T14:48:36Z</time></trkpt>
<trkpt lat="46.29463330" lon="7.39470000"><ele>1562</ele><time>2003-08-16T14:48:41Z</time></trkpt>
<trkpt lat="46.29511670" lon="7.39453330"><ele>1556</ele><time>2003-08-16T14:49:13Z</time></trkpt>
</trkseg></trk></gpx>